Time;durP1;ratioP1;P1;durP2;ratioP2;P2;SDS_P1;SDS_P2;PMS_P1;PMS_P2;Temp;Humidity;BMP_temperature;BMP_pressure;BME280_temperature;BME280_humidity;BME280_pressure;Samples;Min_cycle;Max_cycle;Signal;HPM_P1;HPM_P2
2023/07/01 00:00:05;;;;;;;8.00;7.20;;;;;;;;;;5096997;27;20693;-80
2023/07/01 00:02:31;;;;;;;9.40;7.20;;;;;;;;;;5099726;28;20020;-74
2023/07/01 00:04:59;;;;;;;7.85;7.00;;;;;;;;;;5089030;28;20118;-79
2023/07/01 00:07:24;;;;;;;7.70;7.00;;;;;;;;;;5101746;28;20527;-76
2023/07/01 00:09:49;;;;;;;7.93;6.78;;;;;;;;;;5102846;28;20115;-74
2023/07/01 00:12:15;;;;;;;7.43;6.82;;;;;;;;;;5102223;27;20036;-74
2023/07/01 00:14:40;;;;;;;10.38;7.53;;;;;;;;;;5096525;28;20023;-76
2023/07/01 00:17:09;;;;;;;8.10;7.28;;;;;;;;;;5098684;28;20111;-76
2023/07/01 00:19:34;;;;;;;7.65;6.95;;;;;;;;;;5089437;28;20331;-76
2023/07/01 00:22:01;;;;;;;7.70;6.90;;;;;;;;;;5092844;28;20039;-77
2023/07/01 00:24:27;;;;;;;7.32;6.63;;;;;;;;;;5097940;28;20027;-76
2023/07/01 00:26:52;;;;;;;7.95;7.15;;;;;;;;;;5104902;28;20023;-77
2023/07/01 00:29:17;;;;;;;7.75;7.05;;;;;;;;;;5091795;27;20084;-77
2023/07/01 00:31:43;;;;;;;9.02;7.70;;;;;;;;;;5088205;28;20034;-75
2023/07/01 00:34:08;;;;;;;9.32;7.60;;;;;;;;;;5089770;28;20069;-76
2023/07/01 00:36:34;;;;;;;8.80;7.93;;;;;;;;;;5090609;28;20232;-76
2023/07/01 00:38:59;;;;;;;9.27;7.70;;;;;;;;;;5091022;28;20118;-76
2023/07/01 00:41:25;;;;;;;9.15;8.25;;;;;;;;;;5090183;28;20389;-78
2023/07/01 00:43:50;;;;;;;8.50;7.70;;;;;;;;;;5090150;28;20027;-76
2023/07/01 00:46:18;;;;;;;7.60;6.90;;;;;;;;;;5090354;28;20027;-76
2023/07/01 00:48:44;;;;;;;8.10;7.40;;;;;;;;;;5090184;27;20315;-77
2023/07/01 00:51:09;;;;;;;7.97;7.25;;;;;;;;;;5090929;28;20030;-77
2023/07/01 00:53:35;;;;;;;7.40;6.88;;;;;;;;;;5090600;28;20051;-77
2023/07/01 00:56:01;;;;;;;7.65;6.80;;;;;;;;;;5089924;28;20027;-74
2023/07/01 00:58:26;;;;;;;10.15;8.05;;;;;;;;;;5090546;28;20036;-76
2023/07/01 01:00:51;;;;;;;9.05;7.35;;;;;;;;;;5091042;27;20024;-76
2023/07/01 01:03:26;;;;;;;7.22;6.72;;;;;;;;;;5090170;28;20171;-76
2023/07/01 01:06:05;;;;;;;8.15;7.22;;;;;;;;;;5088353;28;20108;-76
2023/07/01 01:08:46;;;;;;;8.20;7.40;;;;;;;;;;5087730;28;20476;-77
2023/07/01 01:11:13;;;;;;;7.75;6.72;;;;;;;;;;5089075;28;20254;-76
2023/07/01 01:13:40;;;;;;;7.40;6.80;;;;;;;;;;5089020;28;20450;-76
2023/07/01 01:16:06;;;;;;;7.47;6.90;;;;;;;;;;5088880;28;20027;-76
2023/07/01 01:18:32;;;;;;;8.13;7.43;;;;;;;;;;5092472;28;20035;-77
2023/07/01 01:20:58;;;;;;;7.43;6.93;;;;;;;;;;5096535;28;20770;-77
2023/07/01 01:23:28;;;;;;;8.25;7.45;;;;;;;;;;5100717;27;20028;-77
2023/07/01 01:26:13;;;;;;;7.85;7.15;;;;;;;;;;5101526;28;20050;-77
2023/07/01 01:28:38;;;;;;;8.18;7.57;;;;;;;;;;5099989;28;20027;-77
2023/07/01 01:31:04;;;;;;;7.32;6.75;;;;;;;;;;5100884;28;20063;-77
2023/07/01 01:33:30;;;;;;;7.78;7.03;;;;;;;;;;5089839;28;20020;-76
2023/07/01 01:36:00;;;;;;;8.18;7.00;;;;;;;;;;5095913;28;20750;-79
2023/07/01 01:38:28;;;;;;;8.40;7.45;;;;;;;;;;5098175;28;20031;-75
2023/07/01 01:40:58;;;;;;;7.95;7.35;;;;;;;;;;5095447;28;20135;-77
2023/07/01 01:43:23;;;;;;;8.73;8.00;;;;;;;;;;5100536;28;20015;-76
2023/07/01 01:45:48;;;;;;;7.97;7.22;;;;;;;;;;5098410;28;20034;-77
2023/07/01 01:48:14;;;;;;;7.80;7.10;;;;;;;;;;5091911;28;20034;-77
2023/07/01 01:50:41;;;;;;;8.02;7.43;;;;;;;;;;5092091;28;20023;-75
2023/07/01 01:53:07;;;;;;;7.85;7.15;;;;;;;;;;5098409;28;20058;-77
2023/07/01 01:55:33;;;;;;;8.60;7.80;;;;;;;;;;5103408;28;20059;-76
2023/07/01 01:57:59;;;;;;;7.57;6.88;;;;;;;;;;5101635;28;20930;-76
2023/07/01 02:00:24;;;;;;;8.90;8.00;;;;;;;;;;5096398;27;20032;-77
2023/07/01 02:02:49;;;;;;;9.20;8.30;;;;;;;;;;5096537;28;20377;-78
2023/07/01 02:05:15;;;;;;;7.85;7.15;;;;;;;;;;5092089;28;20154;-77
2023/07/01 02:07:40;;;;;;;8.57;7.88;;;;;;;;;;5099138;28;20048;-76
2023/07/01 02:10:06;;;;;;;8.02;7.45;;;;;;;;;;5090976;28;20098;-77
2023/07/01 02:12:31;;;;;;;8.00;7.40;;;;;;;;;;5099037;28;20928;-77
2023/07/01 02:14:56;;;;;;;7.95;7.18;;;;;;;;;;5100891;28;20035;-76
2023/07/01 02:17:22;;;;;;;8.55;7.85;;;;;;;;;;5098823;28;20630;-76
2023/07/01 02:19:47;;;;;;;8.80;7.88;;;;;;;;;;5090905;28;20116;-77
2023/07/01 02:22:13;;;;;;;9.30;8.00;;;;;;;;;;5098829;28;20023;-78
2023/07/01 02:24:38;;;;;;;8.57;7.78;;;;;;;;;;5098909;28;20023;-77
2023/07/01 02:27:03;;;;;;;8.70;7.90;;;;;;;;;;5101234;28;20059;-76
2023/07/01 02:29:29;;;;;;;8.80;7.90;;;;;;;;;;5096460;28;20059;-77
2023/07/01 02:31:54;;;;;;;8.45;7.03;;;;;;;;;;5089021;28;20061;-77
2023/07/01 02:34:27;;;;;;;7.45;6.85;;;;;;;;;;5089004;28;20023;-76
2023/07/01 02:36:52;;;;;;;8.30;7.65;;;;;;;;;;5089173;28;20232;-78
2023/07/01 02:39:18;;;;;;;8.35;7.57;;;;;;;;;;5087698;28;20267;-78
2023/07/01 02:41:43;;;;;;;8.85;7.95;;;;;;;;;;5100788;28;20027;-77
2023/07/01 02:44:08;;;;;;;8.05;7.38;;;;;;;;;;5100095;28;20405;-77
2023/07/01 02:46:34;;;;;;;8.15;7.25;;;;;;;;;;5094892;28;20023;-78
2023/07/01 02:48:59;;;;;;;8.20;7.45;;;;;;;;;;5089043;28;20023;-77
2023/07/01 02:51:24;;;;;;;7.25;6.65;;;;;;;;;;5096190;28;20047;-79
2023/07/01 02:53:50;;;;;;;9.30;8.50;;;;;;;;;;5100523;28;20448;-77
2023/07/01 02:56:15;;;;;;;16.38;13.13;;;;;;;;;;5099374;28;20088;-77
2023/07/01 02:58:40;;;;;;;13.73;12.32;;;;;;;;;;5100260;28;20957;-75
2023/07/01 03:01:06;;;;;;;22.70;16.80;;;;;;;;;;5101427;28;20434;-76
2023/07/01 03:03:31;;;;;;;42.72;31.77;;;;;;;;;;5091757;28;21203;-77
2023/07/01 03:05:57;;;;;;;20.45;16.95;;;;;;;;;;5093992;28;20401;-76
2023/07/01 03:08:22;;;;;;;12.88;11.57;;;;;;;;;;5099637;28;20355;-78
2023/07/01 03:10:49;;;;;;;11.50;10.40;;;;;;;;;;5099348;28;20092;-78
2023/07/01 03:13:16;;;;;;;11.63;10.50;;;;;;;;;;5101077;28;20040;-78
2023/07/01 03:15:41;;;;;;;11.05;9.90;;;;;;;;;;5100474;28;20031;-78
2023/07/01 03:18:07;;;;;;;29.45;22.58;;;;;;;;;;5098765;28;20035;-77
2023/07/01 03:20:32;;;;;;;71.90;45.95;;;;;;;;;;5091310;28;20384;-77
2023/07/01 03:22:58;;;;;;;81.78;51.40;;;;;;;;;;5098652;28;20054;-78
2023/07/01 03:25:23;;;;;;;98.97;64.10;;;;;;;;;;5098069;28;20043;-76
2023/07/01 03:27:49;;;;;;;97.43;64.63;;;;;;;;;;5100004;28;20070;-77
2023/07/01 03:30:15;;;;;;;68.18;47.05;;;;;;;;;;5100977;27;20024;-76
2023/07/01 03:32:41;;;;;;;54.42;35.80;;;;;;;;;;5099581;28;20038;-78
2023/07/01 03:35:06;;;;;;;42.38;28.33;;;;;;;;;;5090241;28;20027;-78
2023/07/01 03:37:32;;;;;;;30.02;19.92;;;;;;;;;;5100364;28;20468;-75
2023/07/01 03:39:57;;;;;;;22.35;17.73;;;;;;;;;;5098797;28;20480;-78
2023/07/01 03:42:22;;;;;;;20.27;16.50;;;;;;;;;;5100477;28;20020;-74
2023/07/01 03:44:48;;;;;;;25.55;19.58;;;;;;;;;;5104334;28;20034;-76
2023/07/01 03:47:13;;;;;;;32.70;21.23;;;;;;;;;;5104069;28;20098;-78
2023/07/01 03:49:39;;;;;;;33.15;23.15;;;;;;;;;;5094691;27;20362;-75
2023/07/01 03:52:04;;;;;;;35.45;24.58;;;;;;;;;;5104221;27;20038;-79
2023/07/01 03:54:30;;;;;;;30.45;21.20;;;;;;;;;;5103299;28;20031;-76
2023/07/01 03:56:55;;;;;;;27.25;19.30;;;;;;;;;;5103753;27;20031;-78
2023/07/01 03:59:20;;;;;;;23.85;18.27;;;;;;;;;;5104637;27;20036;-75
2023/07/01 04:01:46;;;;;;;31.58;24.17;;;;;;;;;;5097877;27;20027;-76
2023/07/01 04:04:11;;;;;;;36.92;25.65;;;;;;;;;;5091454;28;20031;-76
2023/07/01 04:06:36;;;;;;;36.92;26.73;;;;;;;;;;5099856;28;20051;-76
2023/07/01 04:09:02;;;;;;;38.58;25.98;;;;;;;;;;5103817;27;20081;-78
2023/07/01 04:11:27;;;;;;;39.53;27.73;;;;;;;;;;5104131;28;20028;-75
2023/07/01 04:13:52;;;;;;;36.80;26.08;;;;;;;;;;5103398;28;20051;-76
2023/07/01 04:16:18;;;;;;;26.55;20.38;;;;;;;;;;5103816;27;20019;-75
2023/07/01 04:18:43;;;;;;;23.05;17.50;;;;;;;;;;5099146;28;20352;-78
2023/07/01 04:21:09;;;;;;;19.70;16.58;;;;;;;;;;5095333;28;20027;-77
2023/07/01 04:23:34;;;;;;;21.02;15.63;;;;;;;;;;5093733;28;20051;-75
2023/07/01 04:25:59;;;;;;;18.25;14.13;;;;;;;;;;5100371;28;20024;-76
2023/07/01 04:28:25;;;;;;;14.48;12.43;;;;;;;;;;5101568;28;20062;-78
2023/07/01 04:30:50;;;;;;;14.55;11.88;;;;;;;;;;5102551;28;20033;-76
2023/07/01 04:33:16;;;;;;;13.77;11.40;;;;;;;;;;5101408;28;20153;-77
2023/07/01 04:35:41;;;;;;;11.27;10.13;;;;;;;;;;5094167;28;20051;-78
2023/07/01 04:38:06;;;;;;;9.73;8.25;;;;;;;;;;5102382;28;20168;-78
2023/07/01 04:40:32;;;;;;;8.68;7.93;;;;;;;;;;5102645;28;20488;-78
2023/07/01 04:42:57;;;;;;;8.68;7.78;;;;;;;;;;5103535;28;20035;-78
2023/07/01 04:45:22;;;;;;;8.77;7.88;;;;;;;;;;5103121;28;20041;-80
2023/07/01 04:47:48;;;;;;;10.95;7.90;;;;;;;;;;5089613;28;20502;-77
2023/07/01 04:50:13;;;;;;;11.25;7.60;;;;;;;;;;5082667;28;20035;-77
2023/07/01 04:52:39;;;;;;;8.70;7.90;;;;;;;;;;5083095;28;20102;-76
2023/07/01 04:55:05;;;;;;;8.55;7.75;;;;;;;;;;5087585;28;20031;-76
2023/07/01 04:57:30;;;;;;;8.73;7.93;;;;;;;;;;5083294;28;20351;-77
2023/07/01 04:59:56;;;;;;;8.85;8.07;;;;;;;;;;5087001;28;20031;-77
2023/07/01 05:02:22;;;;;;;8.07;7.38;;;;;;;;;;5084043;28;20027;-76
2023/07/01 05:04:47;;;;;;;10.35;8.20;;;;;;;;;;5087181;28;20019;-76
2023/07/01 05:07:12;;;;;;;8.40;7.70;;;;;;;;;;5092285;28;20420;-76
2023/07/01 05:09:38;;;;;;;8.00;7.28;;;;;;;;;;5101157;28;20035;-77
2023/07/01 05:12:03;;;;;;;8.30;7.50;;;;;;;;;;5099428;28;20130;-76
2023/07/01 05:14:29;;;;;;;8.93;8.13;;;;;;;;;;5101380;27;20030;-75
2023/07/01 05:16:54;;;;;;;8.50;7.72;;;;;;;;;;5097930;28;20533;-75
2023/07/01 05:19:19;;;;;;;8.35;7.53;;;;;;;;;;5090275;27;20034;-77
2023/07/01 05:21:51;;;;;;;8.13;7.43;;;;;;;;;;5097812;28;20024;-79
2023/07/01 05:24:17;;;;;;;7.30;6.70;;;;;;;;;;5103145;28;20427;-75
2023/07/01 05:26:49;;;;;;;8.30;7.60;;;;;;;;;;5101727;28;20046;-78
2023/07/01 05:29:15;;;;;;;8.70;7.80;;;;;;;;;;5100432;28;20085;-77
2023/07/01 05:31:40;;;;;;;8.13;7.38;;;;;;;;;;5095436;27;20027;-78
2023/07/01 05:34:05;;;;;;;7.63;6.70;;;;;;;;;;5082914;28;20016;-78
2023/07/01 05:36:31;;;;;;;7.22;6.40;;;;;;;;;;5088758;28;20377;-82
2023/07/01 05:38:57;;;;;;;7.00;6.30;;;;;;;;;;5090418;28;20444;-79
2023/07/01 05:41:22;;;;;;;6.95;6.30;;;;;;;;;;5086023;28;20130;-80
2023/07/01 05:43:47;;;;;;;6.45;5.80;;;;;;;;;;5092233;28;20027;-81
2023/07/01 05:46:13;;;;;;;6.90;6.28;;;;;;;;;;5094446;27;20023;-80
2023/07/01 05:48:38;;;;;;;5.93;5.32;;;;;;;;;;5086422;28;20458;-83
2023/07/01 05:51:03;;;;;;;5.75;5.35;;;;;;;;;;5084916;28;20074;-82
2023/07/01 05:53:29;;;;;;;6.65;5.80;;;;;;;;;;5091414;28;20458;-75
2023/07/01 05:55:54;;;;;;;6.10;5.65;;;;;;;;;;5099215;27;20032;-78
2023/07/01 05:58:19;;;;;;;5.93;5.43;;;;;;;;;;5102888;27;20138;-78
2023/07/01 06:00:45;;;;;;;6.80;6.13;;;;;;;;;;5098884;27;20118;-76
2023/07/01 06:03:11;;;;;;;6.68;5.40;;;;;;;;;;5093516;28;20276;-77
2023/07/01 06:05:37;;;;;;;5.88;5.38;;;;;;;;;;5091171;28;20027;-80
2023/07/01 06:08:02;;;;;;;6.50;5.90;;;;;;;;;;5094395;27;20032;-78
2023/07/01 06:10:27;;;;;;;5.70;5.20;;;;;;;;;;5086697;28;20032;-78
2023/07/01 06:12:53;;;;;;;6.20;5.20;;;;;;;;;;5099555;28;20024;-81
2023/07/01 06:15:18;;;;;;;6.93;5.32;;;;;;;;;;5102817;28;20035;-78
2023/07/01 06:17:43;;;;;;;5.60;5.00;;;;;;;;;;5091385;28;20461;-78
2023/07/01 06:20:09;;;;;;;6.55;5.20;;;;;;;;;;5088441;28;20108;-78
2023/07/01 06:22:34;;;;;;;5.43;4.93;;;;;;;;;;5099071;27;20012;-76
2023/07/01 06:25:00;;;;;;;5.85;5.00;;;;;;;;;;5100925;28;20045;-78
2023/07/01 06:27:25;;;;;;;7.40;4.75;;;;;;;;;;5095518;27;20038;-77
2023/07/01 06:29:50;;;;;;;5.38;4.90;;;;;;;;;;5091047;27;20039;-75
2023/07/01 06:32:16;;;;;;;4.97;4.50;;;;;;;;;;5088916;28;20107;-76
2023/07/01 06:34:41;;;;;;;5.28;4.40;;;;;;;;;;5089086;28;20119;-77
2023/07/01 06:37:07;;;;;;;5.07;4.55;;;;;;;;;;5098463;27;20024;-76
2023/07/01 06:39:32;;;;;;;6.40;4.55;;;;;;;;;;5099268;28;20102;-76
2023/07/01 06:41:58;;;;;;;4.82;4.43;;;;;;;;;;5099846;27;20031;-76
2023/07/01 06:44:23;;;;;;;5.65;4.70;;;;;;;;;;5101189;27;20698;-75
2023/07/01 06:46:48;;;;;;;5.68;4.47;;;;;;;;;;5099076;28;20020;-77
2023/07/01 06:49:14;;;;;;;5.30;4.53;;;;;;;;;;5095450;27;20080;-77
2023/07/01 06:51:40;;;;;;;7.18;4.85;;;;;;;;;;5095714;27;20032;-78
2023/07/01 06:54:05;;;;;;;5.85;4.80;;;;;;;;;;5100165;28;20046;-76
2023/07/01 06:56:30;;;;;;;5.20;4.70;;;;;;;;;;5099761;28;20074;-76
2023/07/01 06:58:56;;;;;;;6.68;5.38;;;;;;;;;;5099060;28;20051;-75
2023/07/01 07:01:21;;;;;;;5.72;4.63;;;;;;;;;;5100009;28;20024;-75
2023/07/01 07:03:46;;;;;;;6.85;4.53;;;;;;;;;;5096928;28;20028;-76
2023/07/01 07:06:12;;;;;;;7.82;4.82;;;;;;;;;;5083489;28;20462;-76
2023/07/01 07:08:37;;;;;;;5.88;4.47;;;;;;;;;;5092400;28;20853;-76
2023/07/01 07:11:02;;;;;;;4.78;4.32;;;;;;;;;;5099140;28;20046;-76
2023/07/01 07:13:28;;;;;;;4.72;4.30;;;;;;;;;;5098534;28;20413;-76
2023/07/01 07:15:53;;;;;;;6.03;4.40;;;;;;;;;;5096841;28;20229;-78
2023/07/01 07:18:19;;;;;;;5.07;4.35;;;;;;;;;;5095030;28;20039;-76
2023/07/01 07:20:44;;;;;;;4.70;4.30;;;;;;;;;;5085173;28;20019;-76
2023/07/01 07:23:09;;;;;;;4.65;4.15;;;;;;;;;;5083551;28;20339;-77
2023/07/01 07:25:35;;;;;;;4.57;3.67;;;;;;;;;;5082708;28;20028;-74
2023/07/01 07:28:03;;;;;;;4.63;4.22;;;;;;;;;;5084618;28;20434;-76
2023/07/01 07:30:29;;;;;;;5.60;3.87;;;;;;;;;;5084563;28;20019;-75
2023/07/01 07:32:54;;;;;;;4.47;4.03;;;;;;;;;;5084523;28;20156;-76
2023/07/01 07:35:21;;;;;;;4.47;4.07;;;;;;;;;;5088383;28;20043;-75
2023/07/01 07:37:46;;;;;;;5.15;3.90;;;;;;;;;;5092895;28;20028;-74
2023/07/01 07:40:11;;;;;;;5.10;4.50;;;;;;;;;;5085978;28;20042;-73
2023/07/01 07:42:37;;;;;;;4.38;3.63;;;;;;;;;;5083988;28;23797;-74
2023/07/01 07:45:03;;;;;;;4.68;4.13;;;;;;;;;;5081110;28;20438;-76
2023/07/01 07:47:28;;;;;;;5.13;3.83;;;;;;;;;;5083741;28;20362;-75
2023/07/01 07:49:53;;;;;;;4.20;3.85;;;;;;;;;;5084661;28;20028;-73
2023/07/01 07:52:19;;;;;;;4.18;3.78;;;;;;;;;;5083228;28;20035;-72
2023/07/01 07:54:45;;;;;;;3.65;3.35;;;;;;;;;;5080937;28;20108;-72
2023/07/01 07:57:12;;;;;;;4.32;3.92;;;;;;;;;;5083620;28;20024;-73
2023/07/01 07:59:40;;;;;;;4.32;3.92;;;;;;;;;;5083894;28;20472;-73
2023/07/01 08:02:05;;;;;;;6.25;4.25;;;;;;;;;;5083776;28;20031;-73
2023/07/01 08:04:32;;;;;;;5.45;3.88;;;;;;;;;;5081887;28;20023;-74
2023/07/01 08:06:58;;;;;;;5.10;3.72;;;;;;;;;;5089729;28;20074;-75
2023/07/01 08:09:23;;;;;;;6.18;3.75;;;;;;;;;;5086443;28;20036;-75
2023/07/01 08:11:49;;;;;;;4.55;3.90;;;;;;;;;;5088541;28;20023;-74
2023/07/01 08:14:14;;;;;;;5.43;3.60;;;;;;;;;;5096605;28;20019;-74
2023/07/01 08:16:39;;;;;;;5.18;3.85;;;;;;;;;;5079884;28;20107;-74
2023/07/01 08:19:05;;;;;;;4.97;3.72;;;;;;;;;;5081492;28;20046;-75
2023/07/01 08:21:31;;;;;;;4.72;3.63;;;;;;;;;;5088526;28;20415;-77
2023/07/01 08:23:56;;;;;;;6.80;3.75;;;;;;;;;;5098357;28;20024;-77
2023/07/01 08:26:21;;;;;;;4.32;3.72;;;;;;;;;;5098803;28;20042;-76
2023/07/01 08:28:47;;;;;;;4.35;3.95;;;;;;;;;;5097226;28;20039;-78
2023/07/01 08:31:12;;;;;;;6.68;4.20;;;;;;;;;;5094507;28;20334;-76
2023/07/01 08:33:38;;;;;;;5.82;4.30;;;;;;;;;;5088615;28;20056;-73
2023/07/01 08:36:03;;;;;;;4.78;3.70;;;;;;;;;;5091019;27;20035;-74
2023/07/01 08:38:29;;;;;;;7.85;4.38;;;;;;;;;;5096879;28;20098;-74
2023/07/01 08:40:55;;;;;;;9.13;4.80;;;;;;;;;;5099384;28;20020;-74
2023/07/01 08:43:23;;;;;;;7.13;4.70;;;;;;;;;;5101639;28;20020;-75
2023/07/01 08:45:52;;;;;;;4.57;3.90;;;;;;;;;;5102308;27;20330;-77
2023/07/01 08:48:20;;;;;;;5.30;4.05;;;;;;;;;;5102167;28;20056;-76
2023/07/01 08:50:48;;;;;;;8.68;4.20;;;;;;;;;;5091662;28;20035;-74
2023/07/01 08:53:14;;;;;;;6.88;5.43;;;;;;;;;;5101586;28;20092;-76
2023/07/01 08:55:39;;;;;;;4.60;3.83;;;;;;;;;;5101246;28;21646;-77
2023/07/01 08:58:04;;;;;;;5.35;3.80;;;;;;;;;;5096274;28;20132;-75
2023/07/01 09:00:30;;;;;;;4.55;3.63;;;;;;;;;;5089930;28;20351;-75
2023/07/01 09:02:56;;;;;;;7.88;4.35;;;;;;;;;;5091761;28;20110;-76
2023/07/01 09:05:21;;;;;;;7.13;4.38;;;;;;;;;;5093413;28;20153;-76
2023/07/01 09:07:47;;;;;;;7.72;4.15;;;;;;;;;;5099312;28;20186;-75
2023/07/01 09:10:13;;;;;;;4.50;3.85;;;;;;;;;;5101867;28;20338;-76
2023/07/01 09:12:38;;;;;;;4.63;3.53;;;;;;;;;;5089105;28;20046;-76
2023/07/01 09:15:07;;;;;;;4.00;3.40;;;;;;;;;;5093111;28;20024;-74
2023/07/01 09:17:36;;;;;;;5.13;3.88;;;;;;;;;;5101847;28;20438;-75
2023/07/01 09:20:06;;;;;;;4.82;4.38;;;;;;;;;;5093993;28;20161;-76
2023/07/01 09:22:32;;;;;;;4.70;4.30;;;;;;;;;;5099254;28;20038;-77
2023/07/01 09:24:58;;;;;;;6.75;4.18;;;;;;;;;;5101673;28;20036;-75
2023/07/01 09:27:23;;;;;;;5.75;4.07;;;;;;;;;;5100188;27;20373;-76
2023/07/01 09:29:49;;;;;;;7.70;6.25;;;;;;;;;;5102436;28;20023;-76
2023/07/01 09:32:26;;;;;;;6.90;3.90;;;;;;;;;;5093584;28;20023;-76
2023/07/01 09:34:58;;;;;;;6.53;3.88;;;;;;;;;;5088403;28;20032;-78
2023/07/01 09:37:24;;;;;;;5.60;3.45;;;;;;;;;;5092552;28;20092;-76
2023/07/01 09:39:50;;;;;;;5.78;5.10;;;;;;;;;;5097265;28;21005;-75
2023/07/01 09:42:17;;;;;;;8.80;5.65;;;;;;;;;;5096744;28;20366;-76
2023/07/01 09:45:03;;;;;;;6.22;4.63;;;;;;;;;;5089418;28;20114;-78
2023/07/01 09:47:28;;;;;;;4.65;4.10;;;;;;;;;;5095758;28;20362;-77
2023/07/01 09:49:54;;;;;;;4.30;3.90;;;;;;;;;;5101028;28;20439;-75
2023/07/01 09:52:30;;;;;;;5.72;4.22;;;;;;;;;;5100349;28;20413;-77
2023/07/01 09:54:55;;;;;;;5.80;4.03;;;;;;;;;;5100636;28;20050;-76
2023/07/01 09:57:21;;;;;;;5.68;4.40;;;;;;;;;;5101091;28;20846;-76
2023/07/01 09:59:47;;;;;;;4.55;4.15;;;;;;;;;;5101381;28;20092;-76
2023/07/01 10:02:12;;;;;;;3.70;3.38;;;;;;;;;;5099893;28;20045;-76
2023/07/01 10:04:38;;;;;;;4.47;3.75;;;;;;;;;;5100380;28;20369;-78
2023/07/01 10:07:04;;;;;;;6.90;4.20;;;;;;;;;;5103594;27;20044;-76
2023/07/01 10:09:29;;;;;;;4.80;4.20;;;;;;;;;;5099043;28;20024;-78
2023/07/01 10:11:56;;;;;;;6.47;4.60;;;;;;;;;;5103222;28;20035;-77
2023/07/01 10:14:23;;;;;;;4.57;3.72;;;;;;;;;;5101077;28;20107;-76
2023/07/01 10:16:49;;;;;;;5.13;3.55;;;;;;;;;;5083830;28;20023;-77
2023/07/01 10:19:31;;;;;;;5.68;3.80;;;;;;;;;;5082118;28;20028;-77
2023/07/01 10:22:15;;;;;;;3.70;3.40;;;;;;;;;;5082721;28;20359;-78
2023/07/01 10:24:42;;;;;;;4.30;3.90;;;;;;;;;;5083107;28;20023;-76
2023/07/01 10:27:08;;;;;;;5.15;3.85;;;;;;;;;;5084795;28;20034;-76
2023/07/01 10:29:34;;;;;;;4.78;3.58;;;;;;;;;;5085267;28;20036;-76
2023/07/01 10:32:08;;;;;;;5.78;3.67;;;;;;;;;;5083927;28;20046;-77
2023/07/01 10:34:52;;;;;;;4.68;4.03;;;;;;;;;;5081666;27;20024;-76
2023/07/01 10:37:18;;;;;;;4.50;4.00;;;;;;;;;;5096761;28;20019;-76
2023/07/01 10:39:43;;;;;;;6.35;4.18;;;;;;;;;;5101448;28;20051;-76
2023/07/01 10:42:31;;;;;;;4.93;4.43;;;;;;;;;;5100347;28;20020;-77
2023/07/01 10:45:12;;;;;;;5.85;4.65;;;;;;;;;;5093590;28;20070;-77
2023/07/01 10:47:42;;;;;;;4.65;4.00;;;;;;;;;;5099682;28;20016;-79
2023/07/01 10:50:08;;;;;;;5.10;3.33;;;;;;;;;;5090689;28;20394;-76
2023/07/01 10:52:54;;;;;;;4.55;3.67;;;;;;;;;;5097169;27;20020;-79
2023/07/01 10:55:43;;;;;;;5.30;3.75;;;;;;;;;;5089831;28;20020;-78
2023/07/01 10:58:21;;;;;;;4.30;3.88;;;;;;;;;;5101158;28;20065;-76
2023/07/01 11:00:48;;;;;;;5.40;3.78;;;;;;;;;;5102036;28;20504;-77
2023/07/01 11:03:32;;;;;;;4.50;3.80;;;;;;;;;;5102082;27;20028;-77
2023/07/01 11:06:00;;;;;;;4.35;3.53;;;;;;;;;;5088225;28;20508;-78
2023/07/01 11:08:26;;;;;;;6.05;4.25;;;;;;;;;;5092955;27;20034;-75
2023/07/01 11:10:51;;;;;;;6.32;4.30;;;;;;;;;;5093960;28;20031;-77
2023/07/01 11:13:20;;;;;;;4.43;3.53;;;;;;;;;;5098437;27;20030;-77
2023/07/01 11:16:05;;;;;;;4.57;4.00;;;;;;;;;;5098748;28;20037;-76
2023/07/01 11:18:43;;;;;;;4.75;3.40;;;;;;;;;;5093216;28;20040;-77
2023/07/01 11:21:10;;;;;;;5.03;3.50;;;;;;;;;;5087880;28;20410;-76
2023/07/01 11:23:36;;;;;;;4.20;3.78;;;;;;;;;;5099856;28;20065;-76
2023/07/01 11:26:01;;;;;;;3.85;3.28;;;;;;;;;;5098529;28;20066;-80
2023/07/01 11:28:36;;;;;;;4.40;3.90;;;;;;;;;;5087122;28;20027;-79
2023/07/01 11:31:18;;;;;;;4.43;3.65;;;;;;;;;;5089477;28;20098;-77
2023/07/01 11:33:47;;;;;;;8.20;4.03;;;;;;;;;;5099368;28;20326;-77
2023/07/01 11:36:14;;;;;;;4.55;3.92;;;;;;;;;;5088646;28;20023;-78
2023/07/01 11:38:41;;;;;;;4.35;3.95;;;;;;;;;;5088888;28;20042;-75
2023/07/01 11:41:07;;;;;;;6.43;4.38;;;;;;;;;;5098984;28;20042;-77
2023/07/01 11:43:32;;;;;;;5.40;4.35;;;;;;;;;;5100559;28;20031;-77
2023/07/01 11:45:58;;;;;;;5.95;4.10;;;;;;;;;;5099456;28;20039;-76
2023/07/01 11:48:30;;;;;;;6.60;3.50;;;;;;;;;;5099414;28;20054;-77
2023/07/01 11:50:56;;;;;;;5.07;3.42;;;;;;;;;;5087947;28;20324;-75
2023/07/01 11:53:21;;;;;;;4.70;3.92;;;;;;;;;;5100053;28;20034;-77
2023/07/01 11:55:46;;;;;;;3.55;3.25;;;;;;;;;;5091555;28;20535;-79
2023/07/01 11:58:28;;;;;;;4.43;3.90;;;;;;;;;;5087480;28;20480;-76
2023/07/01 12:00:54;;;;;;;3.50;3.20;;;;;;;;;;5086304;28;20094;-76
2023/07/01 12:03:19;;;;;;;3.80;3.47;;;;;;;;;;5090810;28;20153;-76
2023/07/01 12:05:45;;;;;;;6.10;3.80;;;;;;;;;;5091367;28;20107;-76
2023/07/01 12:08:10;;;;;;;4.20;3.78;;;;;;;;;;5102731;28;20119;-75
2023/07/01 12:10:36;;;;;;;4.10;3.70;;;;;;;;;;5102493;28;20039;-76
2023/07/01 12:13:01;;;;;;;5.07;3.58;;;;;;;;;;5103079;27;20444;-77
2023/07/01 12:15:27;;;;;;;4.85;3.83;;;;;;;;;;5102513;28;20024;-76
2023/07/01 12:17:53;;;;;;;3.78;3.47;;;;;;;;;;5100093;28;20446;-76
2023/07/01 12:20:20;;;;;;;8.50;3.42;;;;;;;;;;5095667;28;20050;-76
2023/07/01 12:22:45;;;;;;;3.75;3.28;;;;;;;;;;5102602;28;20110;-78
2023/07/01 12:25:11;;;;;;;3.75;3.45;;;;;;;;;;5098680;28;20398;-78
2023/07/01 12:27:36;;;;;;;3.72;2.97;;;;;;;;;;5095443;28;20008;-75
2023/07/01 12:30:09;;;;;;;3.55;3.17;;;;;;;;;;5100350;27;20474;-76
2023/07/01 12:32:35;;;;;;;3.35;3.05;;;;;;;;;;5097149;28;20023;-78
2023/07/01 12:35:00;;;;;;;3.55;3.25;;;;;;;;;;5092843;27;20457;-76
2023/07/01 12:37:26;;;;;;;3.90;3.50;;;;;;;;;;5099725;27;20553;-80
2023/07/01 12:39:52;;;;;;;3.80;3.45;;;;;;;;;;5101764;28;20039;-75
2023/07/01 12:42:18;;;;;;;3.88;3.47;;;;;;;;;;5089657;28;20054;-76
2023/07/01 12:44:44;;;;;;;3.80;3.40;;;;;;;;;;5090088;27;20047;-76
2023/07/01 12:47:10;;;;;;;3.63;3.33;;;;;;;;;;5089476;28;20019;-75
2023/07/01 12:49:37;;;;;;;3.70;3.17;;;;;;;;;;5091412;27;20037;-77
2023/07/01 12:52:02;;;;;;;5.53;4.15;;;;;;;;;;5091683;27;20110;-76
2023/07/01 12:54:30;;;;;;;5.55;3.92;;;;;;;;;;5090682;28;20028;-76
2023/07/01 12:56:56;;;;;;;4.78;3.47;;;;;;;;;;5089483;28;20027;-76
2023/07/01 12:59:21;;;;;;;4.25;3.60;;;;;;;;;;5082862;28;20034;-76
2023/07/01 13:01:47;;;;;;;6.07;3.83;;;;;;;;;;5083181;28;20039;-75
2023/07/01 13:04:15;;;;;;;3.70;3.40;;;;;;;;;;5086856;27;20011;-77
2023/07/01 13:06:41;;;;;;;3.85;3.35;;;;;;;;;;5091528;27;20139;-75
2023/07/01 13:09:09;;;;;;;4.38;3.92;;;;;;;;;;5090009;28;20106;-76
2023/07/01 13:11:38;;;;;;;3.40;3.17;;;;;;;;;;5086859;27;20439;-77
2023/07/01 13:14:08;;;;;;;3.85;3.42;;;;;;;;;;5088300;28;20610;-76
2023/07/01 13:16:36;;;;;;;3.78;3.47;;;;;;;;;;5103064;27;20039;-75
2023/07/01 13:19:06;;;;;;;4.32;3.67;;;;;;;;;;5087100;28;20035;-76
2023/07/01 13:21:47;;;;;;;4.30;3.90;;;;;;;;;;5086307;28;20036;-76
2023/07/01 13:24:13;;;;;;;5.15;3.75;;;;;;;;;;5087201;28;20024;-76
2023/07/01 13:26:42;;;;;;;4.10;3.67;;;;;;;;;;5088638;28;20016;-75
2023/07/01 13:29:12;;;;;;;4.35;3.72;;;;;;;;;;5086742;28;20454;-76
2023/07/01 13:31:38;;;;;;;4.00;3.70;;;;;;;;;;5087707;28;20039;-76
2023/07/01 13:34:08;;;;;;;4.45;4.10;;;;;;;;;;5089421;28;20019;-76
2023/07/01 13:36:38;;;;;;;4.00;3.60;;;;;;;;;;5089528;28;20023;-76
2023/07/01 13:39:04;;;;;;;4.72;3.90;;;;;;;;;;5086905;28;20038;-75
2023/07/01 13:41:29;;;;;;;3.67;3.38;;;;;;;;;;5088532;28;20028;-76
2023/07/01 13:44:18;;;;;;;3.90;3.60;;;;;;;;;;5089033;28;20445;-75
2023/07/01 13:46:43;;;;;;;4.15;3.60;;;;;;;;;;5088052;28;20358;-77
2023/07/01 13:49:09;;;;;;;4.25;3.92;;;;;;;;;;5100204;28;20462;-75
2023/07/01 13:51:35;;;;;;;4.57;4.18;;;;;;;;;;5093304;27;20443;-76
2023/07/01 13:54:01;;;;;;;4.00;3.60;;;;;;;;;;5092442;28;20454;-75
2023/07/01 13:56:27;;;;;;;4.13;3.83;;;;;;;;;;5087234;28;20038;-76
2023/07/01 13:58:52;;;;;;;5.15;3.60;;;;;;;;;;5083670;28;20027;-76
2023/07/01 14:01:17;;;;;;;4.63;3.97;;;;;;;;;;5081318;28;20124;-75
2023/07/01 14:03:47;;;;;;;4.05;3.60;;;;;;;;;;5084290;28;20023;-76
2023/07/01 14:06:14;;;;;;;4.53;4.13;;;;;;;;;;5081153;28;20091;-75
2023/07/01 14:08:39;;;;;;;4.30;3.90;;;;;;;;;;5080882;28;20100;-77
2023/07/01 14:11:05;;;;;;;4.65;4.15;;;;;;;;;;5083711;28;20466;-75
2023/07/01 14:13:30;;;;;;;4.15;3.80;;;;;;;;;;5078097;28;20027;-77
2023/07/01 14:15:56;;;;;;;4.25;3.95;;;;;;;;;;5087497;28;20024;-76
2023/07/01 14:18:21;;;;;;;6.13;4.10;;;;;;;;;;5089238;28;20027;-76
2023/07/01 14:20:54;;;;;;;4.38;3.97;;;;;;;;;;5088429;28;20055;-76
2023/07/01 14:23:21;;;;;;;4.53;4.15;;;;;;;;;;5105948;27;20099;-76
2023/07/01 14:25:47;;;;;;;5.32;4.30;;;;;;;;;;5087420;28;20024;-77
2023/07/01 14:28:13;;;;;;;5.10;4.07;;;;;;;;;;5085291;28;20111;-77
2023/07/01 14:30:44;;;;;;;4.70;4.00;;;;;;;;;;5084859;28;20034;-77
2023/07/01 14:33:10;;;;;;;4.43;4.07;;;;;;;;;;5086489;28;20333;-76
2023/07/01 14:35:35;;;;;;;5.82;4.53;;;;;;;;;;5082082;28;21230;-74
2023/07/01 14:38:00;;;;;;;4.65;4.25;;;;;;;;;;5086243;28;20027;-75